Esneux, Belgium
Current Conditions -  °F | °C
As of 12:20 PM on Wednesday 26 Nov 2014 (Local Time) from EBLG Reporting Station
Light Rain Light Rain  
Wind Chill:   Ceiling: 3000
Heat Index:   Visibility: 3mi
Dew Point:   Wind: 8mph
Humidity: 93%   Direction: 140°SE
Pressure: 29.91"   Gusts: NA
Location:  50.54°N, 5.57°E
Report Text: EBLG 261120Z 14007KT 110V190 4800 -RA FEW018 BKN030 07/06 Q1013 TEMPO 3500 RADZ SCT008 BKN018
Loading
Personal Weather Stations






























Interactive Weather Map New forecast layout! Learn more

10-Day Weather Forecast

Advertisements
Track Severe Weather on mobile